sensor_id;sensor_type;location;lat;lon;timestamp;pressure;altitude;pressure_sealevel;temperature;humidity
21956;BME280;11142;49.930;8.606;2024-01-06T00:00:55;98819.91;;;5.83;100.00
21956;BME280;11142;49.930;8.606;2024-01-06T00:03:24;98827.22;;;5.76;100.00
21956;BME280;11142;49.930;8.606;2024-01-06T00:05:52;98825.66;;;5.74;100.00
21956;BME280;11142;49.930;8.606;2024-01-06T00:08:20;98820.69;;;5.71;100.00
21956;BME280;11142;49.930;8.606;2024-01-06T00:10:48;98818.25;;;5.82;100.00
21956;BME280;11142;49.930;8.606;2024-01-06T00:13:18;98818.94;;;5.98;100.00
21956;BME280;11142;49.930;8.606;2024-01-06T00:15:47;98820.00;;;5.96;100.00
21956;BME280;11142;49.930;8.606;2024-01-06T00:18:15;98820.00;;;5.96;100.00
21956;BME280;11142;49.930;8.606;2024-01-06T00:20:43;98823.31;;;6.10;100.00
21956;BME280;11142;49.930;8.606;2024-01-06T00:23:11;98824.00;;;6.12;100.00
21956;BME280;11142;49.930;8.606;2024-01-06T00:25:40;98823.09;;;6.13;100.00
21956;BME280;11142;49.930;8.606;2024-01-06T00:28:07;98834.03;;;6.29;100.00
21956;BME280;11142;49.930;8.606;2024-01-06T00:30:38;98842.41;;;6.46;100.00
21956;BME280;11142;49.930;8.606;2024-01-06T00:33:06;98848.19;;;6.49;100.00
21956;BME280;11142;49.930;8.606;2024-01-06T00:35:34;98853.00;;;6.66;100.00
21956;BME280;11142;49.930;8.606;2024-01-06T00:38:03;98858.16;;;6.79;100.00
21956;BME280;11142;49.930;8.606;2024-01-06T00:40:31;98862.31;;;6.94;100.00
21956;BME280;11142;49.930;8.606;2024-01-06T00:43:00;98862.63;;;6.89;100.00
21956;BME280;11142;49.930;8.606;2024-01-06T00:45:27;98865.19;;;7.02;100.00
21956;BME280;11142;49.930;8.606;2024-01-06T00:48:01;98865.66;;;7.07;100.00
21956;BME280;11142;49.930;8.606;2024-01-06T00:50:29;98870.72;;;7.21;100.00
21956;BME280;11142;49.930;8.606;2024-01-06T00:52:57;98882.75;;;7.33;100.00
21956;BME280;11142;49.930;8.606;2024-01-06T00:55:26;98884.91;;;7.39;100.00
21956;BME280;11142;49.930;8.606;2024-01-06T00:57:54;98889.94;;;7.54;100.00
21956;BME280;11142;49.930;8.606;2024-01-06T01:00:24;98896.41;;;7.72;100.00
21956;BME280;11142;49.930;8.606;2024-01-06T01:02:54;98900.63;;;7.73;100.00
21956;BME280;11142;49.930;8.606;2024-01-06T01:05:23;98894.28;;;7.53;100.00
21956;BME280;11142;49.930;8.606;2024-01-06T01:07:52;98898.13;;;7.47;100.00
21956;BME280;11142;49.930;8.606;2024-01-06T01:10:20;98893.41;;;7.41;100.00
21956;BME280;11142;49.930;8.606;2024-01-06T01:12:48;98887.84;;;7.35;100.00
21956;BME280;11142;49.930;8.606;2024-01-06T01:15:16;98894.03;;;7.32;100.00
21956;BME280;11142;49.930;8.606;2024-01-06T01:17:44;98891.13;;;7.37;100.00
21956;BME280;11142;49.930;8.606;2024-01-06T01:20:12;98893.63;;;7.38;100.00
21956;BME280;11142;49.930;8.606;2024-01-06T01:22:42;98901.09;;;7.54;100.00
21956;BME280;11142;49.930;8.606;2024-01-06T01:25:10;98901.50;;;7.61;100.00
21956;BME280;11142;49.930;8.606;2024-01-06T01:27:40;98907.59;;;7.60;100.00
21956;BME280;11142;49.930;8.606;2024-01-06T01:30:09;98901.59;;;7.59;100.00
21956;BME280;11142;49.930;8.606;2024-01-06T01:32:38;98903.28;;;7.47;100.00
21956;BME280;11142;49.930;8.606;2024-01-06T01:35:08;98902.28;;;7.37;100.00
21956;BME280;11142;49.930;8.606;2024-01-06T01:37:35;98895.19;;;7.28;100.00
21956;BME280;11142;49.930;8.606;2024-01-06T01:40:07;98907.31;;;7.39;100.00
21956;BME280;11142;49.930;8.606;2024-01-06T01:42:36;98912.88;;;7.45;100.00
21956;BME280;11142;49.930;8.606;2024-01-06T01:45:04;98908.50;;;7.59;100.00
21956;BME280;11142;49.930;8.606;2024-01-06T01:47:33;98912.44;;;7.52;100.00
21956;BME280;11142;49.930;8.606;2024-01-06T01:50:01;98917.72;;;7.50;100.00
21956;BME280;11142;49.930;8.606;2024-01-06T01:52:31;98915.59;;;7.68;100.00
21956;BME280;11142;49.930;8.606;2024-01-06T01:54:59;98924.19;;;7.68;100.00
21956;BME280;11142;49.930;8.606;2024-01-06T01:57:30;98922.03;;;7.62;100.00
21956;BME280;11142;49.930;8.606;2024-01-06T02:00:00;98926.47;;;7.73;100.00
21956;BME280;11142;49.930;8.606;2024-01-06T02:02:49;98932.44;;;7.73;100.00
21956;BME280;11142;49.930;8.606;2024-01-06T02:05:19;98927.38;;;7.72;100.00
21956;BME280;11142;49.930;8.606;2024-01-06T02:07:47;98927.69;;;7.80;100.00
21956;BME280;11142;49.930;8.606;2024-01-06T02:10:18;98923.72;;;7.87;100.00
21956;BME280;11142;49.930;8.606;2024-01-06T02:12:47;98926.50;;;7.84;100.00
21956;BME280;11142;49.930;8.606;2024-01-06T02:15:16;98923.47;;;7.90;100.00
21956;BME280;11142;49.930;8.606;2024-01-06T02:17:46;98920.50;;;7.83;100.00
21956;BME280;11142;49.930;8.606;2024-01-06T02:20:16;98925.31;;;7.77;100.00
21956;BME280;11142;49.930;8.606;2024-01-06T02:22:48;98919.19;;;7.78;100.00
21956;BME280;11142;49.930;8.606;2024-01-06T02:25:18;98922.91;;;7.74;100.00
21956;BME280;11142;49.930;8.606;2024-01-06T02:27:46;98920.34;;;7.74;100.00
21956;BME280;11142;49.930;8.606;2024-01-06T02:30:15;98921.50;;;7.93;100.00
21956;BME280;11142;49.930;8.606;2024-01-06T02:32:44;98931.31;;;8.01;100.00
21956;BME280;11142;49.930;8.606;2024-01-06T02:35:11;98934.88;;;8.11;100.00
21956;BME280;11142;49.930;8.606;2024-01-06T02:37:40;98941.75;;;8.23;100.00
21956;BME280;11142;49.930;8.606;2024-01-06T02:40:11;98948.03;;;8.32;100.00
21956;BME280;11142;49.930;8.606;2024-01-06T02:42:40;98956.16;;;8.15;100.00
21956;BME280;11142;49.930;8.606;2024-01-06T02:45:09;98951.56;;;8.18;100.00
21956;BME280;11142;49.930;8.606;2024-01-06T02:47:37;98958.28;;;7.97;100.00
21956;BME280;11142;49.930;8.606;2024-01-06T02:50:06;98964.97;;;7.76;100.00
21956;BME280;11142;49.930;8.606;2024-01-06T02:52:34;98958.75;;;7.78;100.00
21956;BME280;11142;49.930;8.606;2024-01-06T02:55:03;98955.97;;;7.81;100.00
21956;BME280;11142;49.930;8.606;2024-01-06T02:57:33;98960.81;;;7.86;100.00
21956;BME280;11142;49.930;8.606;2024-01-06T03:00:02;98958.72;;;7.91;100.00
21956;BME280;11142;49.930;8.606;2024-01-06T03:02:31;98961.66;;;8.10;100.00
21956;BME280;11142;49.930;8.606;2024-01-06T03:05:03;98972.66;;;8.01;100.00
21956;BME280;11142;49.930;8.606;2024-01-06T03:07:32;98967.47;;;8.25;100.00
21956;BME280;11142;49.930;8.606;2024-01-06T03:10:01;98981.44;;;7.98;100.00
21956;BME280;11142;49.930;8.606;2024-01-06T03:12:30;98968.66;;;7.84;100.00
21956;BME280;11142;49.930;8.606;2024-01-06T03:15:00;98975.25;;;7.88;100.00
21956;BME280;11142;49.930;8.606;2024-01-06T03:17:28;98971.09;;;7.98;100.00
21956;BME280;11142;49.930;8.606;2024-01-06T03:19:58;98958.66;;;7.80;100.00
21956;BME280;11142;49.930;8.606;2024-01-06T03:22:26;98961.47;;;7.77;100.00
21956;BME280;11142;49.930;8.606;2024-01-06T03:24:55;98963.09;;;7.78;100.00
21956;BME280;11142;49.930;8.606;2024-01-06T03:27:23;98965.13;;;7.98;100.00
21956;BME280;11142;49.930;8.606;2024-01-06T03:29:51;98970.84;;;8.14;100.00
21956;BME280;11142;49.930;8.606;2024-01-06T03:32:21;98972.22;;;8.07;100.00
21956;BME280;11142;49.930;8.606;2024-01-06T03:34:49;98969.34;;;7.86;100.00
21956;BME280;11142;49.930;8.606;2024-01-06T03:37:18;98975.94;;;8.03;100.00
21956;BME280;11142;49.930;8.606;2024-01-06T03:39:45;98981.53;;;7.97;100.00
21956;BME280;11142;49.930;8.606;2024-01-06T03:42:14;98983.19;;;7.98;100.00
21956;BME280;11142;49.930;8.606;2024-01-06T03:44:42;98985.91;;;7.84;100.00
21956;BME280;11142;49.930;8.606;2024-01-06T03:47:10;98983.09;;;7.87;100.00
21956;BME280;11142;49.930;8.606;2024-01-06T03:49:40;98992.56;;;8.12;100.00
21956;BME280;11142;49.930;8.606;2024-01-06T03:52:08;98997.69;;;8.24;100.00
21956;BME280;11142;49.930;8.606;2024-01-06T03:54:36;99006.94;;;8.39;100.00
21956;BME280;11142;49.930;8.606;2024-01-06T03:57:05;99006.41;;;8.11;100.00
21956;BME280;11142;49.930;8.606;2024-01-06T03:59:34;99005.56;;;8.10;100.00
21956;BME280;11142;49.930;8.606;2024-01-06T04:02:02;99009.47;;;8.16;100.00
21956;BME280;11142;49.930;8.606;2024-01-06T04:04:31;99005.22;;;8.27;100.00
21956;BME280;11142;49.930;8.606;2024-01-06T04:07:02;99009.28;;;8.06;100.00
21956;BME280;11142;49.930;8.606;2024-01-06T04:09:30;99006.94;;;8.03;100.00
21956;BME280;11142;49.930;8.606;2024-01-06T04:11:59;99010.13;;;8.07;100.00
21956;BME280;11142;49.930;8.606;2024-01-06T04:14:29;99008.69;;;8.02;100.00
21956;BME280;11142;49.930;8.606;2024-01-06T04:16:57;99005.00;;;7.94;100.00
21956;BME280;11142;49.930;8.606;2024-01-06T04:19:25;99016.78;;;7.98;100.00
21956;BME280;11142;49.930;8.606;2024-01-06T04:21:53;99012.78;;;8.18;100.00
21956;BME280;11142;49.930;8.606;2024-01-06T04:24:23;99019.16;;;8.25;100.00
21956;BME280;11142;49.930;8.606;2024-01-06T04:26:52;99024.31;;;8.25;100.00
21956;BME280;11142;49.930;8.606;2024-01-06T04:29:20;99015.25;;;8.32;100.00
21956;BME280;11142;49.930;8.606;2024-01-06T04:31:50;99019.28;;;8.23;100.00
21956;BME280;11142;49.930;8.606;2024-01-06T04:34:19;99024.06;;;8.17;100.00
21956;BME280;11142;49.930;8.606;2024-01-06T04:36:47;99024.50;;;8.11;100.00
21956;BME280;11142;49.930;8.606;2024-01-06T04:39:16;99020.16;;;8.11;100.00
21956;BME280;11142;49.930;8.606;2024-01-06T04:41:46;99015.78;;;8.24;100.00
21956;BME280;11142;49.930;8.606;2024-01-06T04:44:14;99016.91;;;8.33;100.00
21956;BME280;11142;49.930;8.606;2024-01-06T04:46:43;99014.72;;;8.27;100.00
21956;BME280;11142;49.930;8.606;2024-01-06T04:49:11;99012.34;;;8.24;100.00
21956;BME280;11142;49.930;8.606;2024-01-06T04:51:40;99016.69;;;8.23;100.00
21956;BME280;11142;49.930;8.606;2024-01-06T04:54:08;99015.66;;;8.26;100.00
21956;BME280;11142;49.930;8.606;2024-01-06T04:56:36;99010.91;;;8.20;100.00
21956;BME280;11142;49.930;8.606;2024-01-06T04:59:06;99000.31;;;8.12;100.00
21956;BME280;11142;49.930;8.606;2024-01-06T05:01:34;99006.63;;;8.08;100.00
21956;BME280;11142;49.930;8.606;2024-01-06T05:04:03;99004.94;;;7.83;100.00
21956;BME280;11142;49.930;8.606;2024-01-06T05:06:32;99010.59;;;7.88;100.00
21956;BME280;11142;49.930;8.606;2024-01-06T05:09:00;99009.22;;;8.08;100.00
21956;BME280;11142;49.930;8.606;2024-01-06T05:11:29;99014.63;;;7.92;100.00
21956;BME280;11142;49.930;8.606;2024-01-06T05:13:58;99011.91;;;7.93;100.00
21956;BME280;11142;49.930;8.606;2024-01-06T05:16:27;99010.16;;;7.94;100.00
21956;BME280;11142;49.930;8.606;2024-01-06T05:18:56;99015.75;;;7.88;100.00
21956;BME280;11142;49.930;8.606;2024-01-06T05:21:24;99016.25;;;7.93;100.00
21956;BME280;11142;49.930;8.606;2024-01-06T05:23:54;99017.47;;;8.00;100.00
21956;BME280;11142;49.930;8.606;2024-01-06T05:26:22;99023.19;;;7.92;100.00
21956;BME280;11142;49.930;8.606;2024-01-06T05:28:51;99018.50;;;8.10;100.00
21956;BME280;11142;49.930;8.606;2024-01-06T05:31:20;99017.00;;;8.19;100.00
21956;BME280;11142;49.930;8.606;2024-01-06T05:33:49;99023.94;;;8.18;100.00
21956;BME280;11142;49.930;8.606;2024-01-06T05:36:18;99020.28;;;7.97;100.00
21956;BME280;11142;49.930;8.606;2024-01-06T05:38:48;99019.03;;;8.02;100.00
21956;BME280;11142;49.930;8.606;2024-01-06T05:41:19;99023.56;;;8.12;100.00
21956;BME280;11142;49.930;8.606;2024-01-06T05:43:47;99031.78;;;8.29;100.00
21956;BME280;11142;49.930;8.606;2024-01-06T05:46:20;99039.81;;;8.37;100.00
21956;BME280;11142;49.930;8.606;2024-01-06T05:48:51;99050.81;;;8.28;100.00
21956;BME280;11142;49.930;8.606;2024-01-06T05:51:20;99041.47;;;8.38;100.00
21956;BME280;11142;49.930;8.606;2024-01-06T05:53:49;99054.63;;;8.35;100.00
21956;BME280;11142;49.930;8.606;2024-01-06T05:56:23;99049.56;;;8.34;100.00
21956;BME280;11142;49.930;8.606;2024-01-06T05:58:53;99048.13;;;8.30;100.00
21956;BME280;11142;49.930;8.606;2024-01-06T06:01:21;99050.16;;;8.25;100.00
21956;BME280;11142;49.930;8.606;2024-01-06T06:03:51;99053.19;;;8.19;100.00
21956;BME280;11142;49.930;8.606;2024-01-06T06:06:19;99052.88;;;8.23;100.00
21956;BME280;11142;49.930;8.606;2024-01-06T06:08:48;99053.47;;;7.90;100.00
21956;BME280;11142;49.930;8.606;2024-01-06T06:11:16;99057.72;;;7.79;100.00
21956;BME280;11142;49.930;8.606;2024-01-06T06:13:44;99063.50;;;7.82;100.00
21956;BME280;11142;49.930;8.606;2024-01-06T06:16:13;99052.75;;;7.76;100.00
21956;BME280;11142;49.930;8.606;2024-01-06T06:18:42;99057.72;;;7.79;100.00
21956;BME280;11142;49.930;8.606;2024-01-06T06:21:11;99068.66;;;7.95;100.00
21956;BME280;11142;49.930;8.606;2024-01-06T06:23:40;99067.59;;;7.97;100.00
21956;BME280;11142;49.930;8.606;2024-01-06T06:26:08;99063.47;;;8.08;100.00
21956;BME280;11142;49.930;8.606;2024-01-06T06:28:36;99072.09;;;8.19;100.00
21956;BME280;11142;49.930;8.606;2024-01-06T06:31:05;99073.94;;;8.42;100.00
21956;BME280;11142;49.930;8.606;2024-01-06T06:33:33;99078.84;;;7.96;100.00
21956;BME280;11142;49.930;8.606;2024-01-06T06:36:02;99081.66;;;7.93;100.00
21956;BME280;11142;49.930;8.606;2024-01-06T06:38:33;99083.31;;;7.94;100.00
21956;BME280;11142;49.930;8.606;2024-01-06T06:41:01;99091.03;;;8.07;100.00
21956;BME280;11142;49.930;8.606;2024-01-06T06:43:29;99093.81;;;8.17;100.00
21956;BME280;11142;49.930;8.606;2024-01-06T06:45:58;99095.66;;;8.27;100.00
21956;BME280;11142;49.930;8.606;2024-01-06T06:48:26;99100.44;;;8.33;100.00
21956;BME280;11142;49.930;8.606;2024-01-06T06:50:55;99102.28;;;8.19;100.00
21956;BME280;11142;49.930;8.606;2024-01-06T06:53:23;99109.19;;;8.18;100.00
21956;BME280;11142;49.930;8.606;2024-01-06T06:55:52;99116.56;;;8.24;100.00
21956;BME280;11142;49.930;8.606;2024-01-06T06:58:21;99113.34;;;8.21;100.00
21956;BME280;11142;49.930;8.606;2024-01-06T07:00:49;99112.19;;;8.25;100.00
21956;BME280;11142;49.930;8.606;2024-01-06T07:03:18;99117.97;;;8.41;100.00
21956;BME280;11142;49.930;8.606;2024-01-06T07:05:46;99117.09;;;8.53;100.00
21956;BME280;11142;49.930;8.606;2024-01-06T07:08:17;99119.69;;;8.53;100.00
21956;BME280;11142;49.930;8.606;2024-01-06T07:10:45;99125.69;;;8.53;100.00
21956;BME280;11142;49.930;8.606;2024-01-06T07:13:15;99139.06;;;8.47;100.00
21956;BME280;11142;49.930;8.606;2024-01-06T07:15:44;99135.44;;;8.37;100.00
21956;BME280;11142;49.930;8.606;2024-01-06T07:18:12;99139.50;;;8.29;100.00
21956;BME280;11142;49.930;8.606;2024-01-06T07:20:41;99145.06;;;8.23;100.00
21956;BME280;11142;49.930;8.606;2024-01-06T07:23:09;99147.25;;;8.16;100.00
21956;BME280;11142;49.930;8.606;2024-01-06T07:25:37;99150.75;;;8.15;100.00
21956;BME280;11142;49.930;8.606;2024-01-06T07:28:06;99153.47;;;8.01;100.00
21956;BME280;11142;49.930;8.606;2024-01-06T07:30:37;99145.09;;;8.10;100.00
21956;BME280;11142;49.930;8.606;2024-01-06T07:33:05;99145.59;;;8.02;100.00
21956;BME280;11142;49.930;8.606;2024-01-06T07:35:33;99152.56;;;8.02;100.00
21956;BME280;11142;49.930;8.606;2024-01-06T07:38:01;99147.88;;;7.94;100.00
21956;BME280;11142;49.930;8.606;2024-01-06T07:40:29;99135.91;;;7.81;100.00
21956;BME280;11142;49.930;8.606;2024-01-06T07:42:59;99145.19;;;7.71;100.00
21956;BME280;11142;49.930;8.606;2024-01-06T07:45:28;99146.56;;;7.89;100.00
21956;BME280;11142;49.930;8.606;2024-01-06T07:48:02;99141.19;;;7.79;100.00
21956;BME280;11142;49.930;8.606;2024-01-06T07:50:30;99142.41;;;7.74;100.00
21956;BME280;11142;49.930;8.606;2024-01-06T07:52:59;99142.81;;;7.68;100.00
21956;BME280;11142;49.930;8.606;2024-01-06T07:55:28;99149.00;;;7.53;100.00
21956;BME280;11142;49.930;8.606;2024-01-06T07:57:56;99153.69;;;7.73;100.00
21956;BME280;11142;49.930;8.606;2024-01-06T08:00:24;99157.09;;;7.86;100.00
21956;BME280;11142;49.930;8.606;2024-01-06T08:02:53;99170.50;;;8.03;100.00
21956;BME280;11142;49.930;8.606;2024-01-06T08:05:22;99183.13;;;8.08;100.00
21956;BME280;11142;49.930;8.606;2024-01-06T08:07:51;99180.03;;;8.28;100.00
21956;BME280;11142;49.930;8.606;2024-01-06T08:10:19;99184.66;;;8.23;100.00
21956;BME280;11142;49.930;8.606;2024-01-06T08:12:48;99182.41;;;8.06;100.00
21956;BME280;11142;49.930;8.606;2024-01-06T08:15:18;99180.56;;;7.95;100.00
21956;BME280;11142;49.930;8.606;2024-01-06T08:17:46;99174.75;;;7.79;100.00
21956;BME280;11142;49.930;8.606;2024-01-06T08:20:19;99170.63;;;7.77;100.00
21956;BME280;11142;49.930;8.606;2024-01-06T08:22:51;99167.78;;;7.42;100.00
21956;BME280;11142;49.930;8.606;2024-01-06T08:25:19;99166.56;;;7.47;100.00
21956;BME280;11142;49.930;8.606;2024-01-06T08:27:48;99164.88;;;7.46;100.00
21956;BME280;11142;49.930;8.606;2024-01-06T08:30:16;99167.19;;;7.51;100.00
21956;BME280;11142;49.930;8.606;2024-01-06T08:32:44;99173.34;;;7.48;100.00
21956;BME280;11142;49.930;8.606;2024-01-06T08:35:12;99173.53;;;7.45;100.00
21956;BME280;11142;49.930;8.606;2024-01-06T08:37:43;99173.84;;;7.28;100.00
21956;BME280;11142;49.930;8.606;2024-01-06T08:40:13;99163.38;;;7.17;100.00
21956;BME280;11142;49.930;8.606;2024-01-06T08:42:41;99159.88;;;7.18;100.00
21956;BME280;11142;49.930;8.606;2024-01-06T08:45:12;99164.88;;;7.34;100.00
21956;BME280;11142;49.930;8.606;2024-01-06T08:47:40;99168.38;;;7.45;100.00
21956;BME280;11142;49.930;8.606;2024-01-06T08:50:08;99172.44;;;7.62;100.00
21956;BME280;11142;49.930;8.606;2024-01-06T08:52:37;99176.50;;;7.66;100.00
21956;BME280;11142;49.930;8.606;2024-01-06T08:55:05;99173.50;;;7.85;100.00
21956;BME280;11142;49.930;8.606;2024-01-06T08:57:34;99178.38;;;7.89;100.00
21956;BME280;11142;49.930;8.606;2024-01-06T09:00:06;99180.13;;;7.76;100.00
21956;BME280;11142;49.930;8.606;2024-01-06T09:02:36;99185.09;;;7.92;100.00
21956;BME280;11142;49.930;8.606;2024-01-06T09:05:05;99178.56;;;8.24;100.00
21956;BME280;11142;49.930;8.606;2024-01-06T09:07:33;99192.97;;;8.28;100.00
21956;BME280;11142;49.930;8.606;2024-01-06T09:10:02;99191.69;;;8.09;100.00
21956;BME280;11142;49.930;8.606;2024-01-06T09:12:30;99202.25;;;8.31;100.00
21956;BME280;11142;49.930;8.606;2024-01-06T09:15:00;99209.72;;;8.35;100.00
21956;BME280;11142;49.930;8.606;2024-01-06T09:17:31;99211.03;;;8.16;100.00
21956;BME280;11142;49.930;8.606;2024-01-06T09:20:03;99214.97;;;8.21;100.00
21956;BME280;11142;49.930;8.606;2024-01-06T09:22:32;99219.31;;;8.21;100.00
21956;BME280;11142;49.930;8.606;2024-01-06T09:25:01;99217.72;;;8.18;100.00
21956;BME280;11142;49.930;8.606;2024-01-06T09:27:30;99216.50;;;8.24;100.00
21956;BME280;11142;49.930;8.606;2024-01-06T09:30:01;99223.75;;;8.31;100.00
21956;BME280;11142;49.930;8.606;2024-01-06T09:32:29;99229.22;;;8.27;100.00
21956;BME280;11142;49.930;8.606;2024-01-06T09:34:58;99224.72;;;8.30;100.00
21956;BME280;11142;49.930;8.606;2024-01-06T09:37:27;99229.25;;;8.39;100.00
21956;BME280;11142;49.930;8.606;2024-01-06T09:39:56;99231.41;;;8.45;100.00
21956;BME280;11142;49.930;8.606;2024-01-06T09:42:24;99230.06;;;8.52;100.00
21956;BME280;11142;49.930;8.606;2024-01-06T09:44:53;99230.59;;;8.45;100.00
21956;BME280;11142;49.930;8.606;2024-01-06T09:47:25;99233.47;;;8.40;100.00
21956;BME280;11142;49.930;8.606;2024-01-06T09:49:59;99235.63;;;8.72;100.00
21956;BME280;11142;49.930;8.606;2024-01-06T09:52:32;99247.06;;;8.93;100.00
21956;BME280;11142;49.930;8.606;2024-01-06T09:55:02;99250.19;;;8.73;100.00
21956;BME280;11142;49.930;8.606;2024-01-06T09:57:33;99257.03;;;8.61;100.00
21956;BME280;11142;49.930;8.606;2024-01-06T10:00:02;99263.97;;;8.61;100.00
21956;BME280;11142;49.930;8.606;2024-01-06T10:02:52;99247.97;;;8.30;100.00
21956;BME280;11142;49.930;8.606;2024-01-06T10:05:21;99251.69;;;8.39;100.00
21956;BME280;11142;49.930;8.606;2024-01-06T10:07:50;99249.72;;;8.42;100.00
21956;BME280;11142;49.930;8.606;2024-01-06T10:10:18;99255.25;;;8.87;100.00
21956;BME280;11142;49.930;8.606;2024-01-06T10:12:52;99254.22;;;8.77;100.00
21956;BME280;11142;49.930;8.606;2024-01-06T10:15:22;99257.53;;;8.79;100.00
21956;BME280;11142;49.930;8.606;2024-01-06T10:17:54;99262.59;;;8.80;100.00
21956;BME280;11142;49.930;8.606;2024-01-06T10:20:25;99260.31;;;8.76;100.00
21956;BME280;11142;49.930;8.606;2024-01-06T10:22:53;99253.22;;;8.54;100.00
21956;BME280;11142;49.930;8.606;2024-01-06T10:25:23;99251.34;;;8.31;100.00
21956;BME280;11142;49.930;8.606;2024-01-06T10:27:52;99241.19;;;8.15;100.00
21956;BME280;11142;49.930;8.606;2024-01-06T10:30:21;99245.56;;;8.27;100.00
21956;BME280;11142;49.930;8.606;2024-01-06T10:32:49;99248.28;;;8.38;100.00
21956;BME280;11142;49.930;8.606;2024-01-06T10:35:20;99248.69;;;8.45;100.00
21956;BME280;11142;49.930;8.606;2024-01-06T10:37:48;99251.38;;;8.56;100.00
21956;BME280;11142;49.930;8.606;2024-01-06T10:40:17;99250.50;;;8.81;100.00
21956;BME280;11142;49.930;8.606;2024-01-06T10:42:47;99258.03;;;8.96;100.00
21956;BME280;11142;49.930;8.606;2024-01-06T10:45:16;99253.91;;;9.18;100.00
21956;BME280;11142;49.930;8.606;2024-01-06T10:47:44;99260.19;;;9.26;100.00
21956;BME280;11142;49.930;8.606;2024-01-06T10:50:14;99260.25;;;9.37;100.00
21956;BME280;11142;49.930;8.606;2024-01-06T10:52:47;99272.16;;;9.64;100.00
21956;BME280;11142;49.930;8.606;2024-01-06T10:55:15;99266.63;;;10.03;100.00
21956;BME280;11142;49.930;8.606;2024-01-06T10:57:44;99274.72;;;10.22;100.00
21956;BME280;11142;49.930;8.606;2024-01-06T11:00:14;99278.78;;;10.48;100.00
21956;BME280;11142;49.930;8.606;2024-01-06T11:02:44;99283.84;;;10.72;100.00
21956;BME280;11142;49.930;8.606;2024-01-06T11:05:14;99289.50;;;10.66;100.00
21956;BME280;11142;49.930;8.606;2024-01-06T11:07:43;99287.38;;;10.82;100.00
21956;BME280;11142;49.930;8.606;2024-01-06T11:10:16;99286.28;;;11.29;100.00
21956;BME280;11142;49.930;8.606;2024-01-06T11:12:45;99288.06;;;11.29;100.00
21956;BME280;11142;49.930;8.606;2024-01-06T11:15:43;99289.13;;;11.26;100.00
21956;BME280;11142;49.930;8.606;2024-01-06T11:18:31;99288.63;;;11.32;100.00
21956;BME280;11142;49.930;8.606;2024-01-06T11:21:18;99292.44;;;11.28;100.00
21956;BME280;11142;49.930;8.606;2024-01-06T11:24:11;99295.41;;;11.55;100.00
21956;BME280;11142;49.930;8.606;2024-01-06T11:26:43;99298.03;;;11.55;100.00
21956;BME280;11142;49.930;8.606;2024-01-06T11:29:14;99297.13;;;11.34;100.00
21956;BME280;11142;49.930;8.606;2024-01-06T11:34:49;99289.84;;;11.71;100.00
21956;BME280;11142;49.930;8.606;2024-01-06T11:37:19;99292.09;;;11.96;100.00
21956;BME280;11142;49.930;8.606;2024-01-06T11:39:47;99296.56;;;11.73;100.00
21956;BME280;11142;49.930;8.606;2024-01-06T11:42:17;99293.06;;;11.95;100.00
21956;BME280;11142;49.930;8.606;2024-01-06T11:44:50;99294.34;;;12.01;100.00
21956;BME280;11142;49.930;8.606;2024-01-06T11:47:20;99299.22;;;12.15;100.00
21956;BME280;11142;49.930;8.606;2024-01-06T11:49:54;99299.97;;;12.06;100.00
21956;BME280;11142;49.930;8.606;2024-01-06T11:52:25;99300.56;;;12.09;100.00
21956;BME280;11142;49.930;8.606;2024-01-06T11:54:55;99295.28;;;12.00;100.00
21956;BME280;11142;49.930;8.606;2024-01-06T11:57:27;99286.63;;;11.67;100.00
21956;BME280;11142;49.930;8.606;2024-01-06T11:59:56;99289.31;;;11.88;100.00
21956;BME280;11142;49.930;8.606;2024-01-06T12:02:24;99298.34;;;12.05;100.00
21956;BME280;11142;49.930;8.606;2024-01-06T12:04:54;99287.22;;;12.03;100.00
21956;BME280;11142;49.930;8.606;2024-01-06T12:07:23;99293.75;;;12.18;100.00
21956;BME280;11142;49.930;8.606;2024-01-06T12:10:00;99297.63;;;12.44;100.00
21956;BME280;11142;49.930;8.606;2024-01-06T12:12:30;99295.91;;;12.54;100.00
21956;BME280;11142;49.930;8.606;2024-01-06T12:15:02;99297.38;;;12.47;100.00
21956;BME280;11142;49.930;8.606;2024-01-06T12:17:31;99292.84;;;12.40;100.00
21956;BME280;11142;49.930;8.606;2024-01-06T12:20:00;99300.50;;;12.41;100.00
21956;BME280;11142;49.930;8.606;2024-01-06T12:22:28;99296.44;;;12.48;100.00
21956;BME280;11142;49.930;8.606;2024-01-06T12:24:58;99299.66;;;12.61;100.00
21956;BME280;11142;49.930;8.606;2024-01-06T12:27:27;99300.00;;;11.09;100.00
21956;BME280;11142;49.930;8.606;2024-01-06T12:29:57;99287.50;;;10.70;100.00
21956;BME280;11142;49.930;8.606;2024-01-06T12:32:26;99284.75;;;11.38;100.00
21956;BME280;11142;49.930;8.606;2024-01-06T12:34:54;99284.72;;;11.81;100.00
21956;BME280;11142;49.930;8.606;2024-01-06T12:37:23;99286.25;;;11.83;100.00
21956;BME280;11142;49.930;8.606;2024-01-06T12:39:51;99285.53;;;12.13;100.00
21956;BME280;11142;49.930;8.606;2024-01-06T12:42:19;99287.47;;;12.41;100.00
21956;BME280;11142;49.930;8.606;2024-01-06T12:44:53;99292.47;;;12.54;100.00
21956;BME280;11142;49.930;8.606;2024-01-06T12:47:23;99288.00;;;12.65;100.00
21956;BME280;11142;49.930;8.606;2024-01-06T12:49:51;99292.28;;;12.66;100.00
21956;BME280;11142;49.930;8.606;2024-01-06T12:52:25;99301.03;;;12.65;100.00
21956;BME280;11142;49.930;8.606;2024-01-06T12:54:54;99297.63;;;12.65;100.00
21956;BME280;11142;49.930;8.606;2024-01-06T12:57:23;99303.91;;;12.93;100.00
21956;BME280;11142;49.930;8.606;2024-01-06T12:59:52;99308.16;;;12.94;100.00
21956;BME280;11142;49.930;8.606;2024-01-06T13:02:22;99314.53;;;13.10;100.00
21956;BME280;11142;49.930;8.606;2024-01-06T13:04:51;99305.94;;;12.89;100.00
21956;BME280;11142;49.930;8.606;2024-01-06T13:07:22;99310.00;;;12.82;100.00
21956;BME280;11142;49.930;8.606;2024-01-06T13:09:52;99303.34;;;12.59;100.00
21956;BME280;11142;49.930;8.606;2024-01-06T13:12:21;99303.56;;;12.56;100.00